Time;durP1;ratioP1;P1;durP2;ratioP2;P2;SDS_P1;SDS_P2;PMS_P1;PMS_P2;Temp;Humidity;BMP_temperature;BMP_pressure;BME280_temperature;BME280_humidity;BME280_pressure;Samples;Min_cycle;Max_cycle;Signal;HPM_P1;HPM_P2
2022/04/26 03:37:19;;;;;;;28.40;5.55;;;;;;;18.08;55.81;99283.00;5112785;28;20046;-48
2022/04/26 03:39:45;;;;;;;45.95;21.17;;;;;;;17.74;56.38;99288.75;5112260;28;20027;-49
2022/04/26 03:42:11;;;;;;;29.00;11.45;;;;;;;17.61;56.89;99289.22;5111890;28;20020;-50
2022/04/26 03:44:37;;;;;;;46.53;20.05;;;;;;;17.47;57.02;99292.34;5111485;28;20039;-49
2022/04/26 03:47:03;;;;;;;34.83;16.02;;;;;;;17.57;56.24;99291.59;5112389;28;20031;-52
2022/04/26 03:49:28;;;;;;;30.70;7.72;;;;;;;17.62;56.40;99282.78;5112417;28;20431;-49
2022/04/26 03:51:54;;;;;;;20.95;5.40;;;;;;;17.69;56.69;99299.50;5112264;28;20415;-49
2022/04/26 03:54:20;;;;;;;17.90;5.60;;;;;;;17.80;56.33;99290.41;5111382;28;20399;-48
2022/04/26 03:56:46;;;;;;;18.92;5.38;;;;;;;17.72;57.02;99296.25;5112075;28;20375;-48
2022/04/26 03:59:11;;;;;;;18.38;5.50;;;;;;;17.56;57.27;99308.84;5111342;28;20034;-49
2022/04/26 04:01:37;;;;;;;24.60;5.50;;;;;;;17.69;57.42;99310.25;5112169;28;20024;-51
2022/04/26 04:04:03;;;;;;;21.63;5.72;;;;;;;17.67;57.43;99315.06;5110951;28;20583;-50
2022/04/26 04:06:28;;;;;;;25.95;6.07;;;;;;;17.71;57.59;99316.19;5111904;28;20034;-49
2022/04/26 04:08:54;;;;;;;31.35;6.13;;;;;;;17.59;57.41;99325.28;5111861;28;20107;-47
2022/04/26 04:11:19;;;;;;;41.35;20.25;;;;;;;17.61;57.72;99318.81;5111450;28;20024;-48
2022/04/26 04:13:44;;;;;;;48.50;24.60;;;;;;;17.53;57.96;99320.91;5111105;28;20020;-48
2022/04/26 04:16:10;;;;;;;31.05;10.95;;;;;;;17.46;58.43;99327.56;5111350;28;20585;-47
2022/04/26 04:21:19;;;;;;;17.38;5.50;;;;;;;17.55;58.14;99331.41;5110638;28;20092;-47
2022/04/26 04:23:45;;;;;;;24.10;6.20;;;;;;;17.82;57.06;99335.88;5110437;28;20019;-48
2022/04/26 04:26:10;;;;;;;34.40;11.60;;;;;;;18.06;56.08;99333.59;5110428;28;20031;-49
2022/04/26 04:28:36;;;;;;;28.65;7.82;;;;;;;18.22;54.98;99324.53;5110465;28;20472;-50
2022/04/26 04:31:02;;;;;;;22.17;5.15;;;;;;;18.55;52.49;99328.66;5105836;28;20034;-47
2022/04/26 04:33:28;;;;;;;20.35;5.43;;;;;;;18.77;52.32;99330.28;5102910;28;20019;-48
2022/04/26 04:35:54;;;;;;;39.17;6.68;;;;;;;19.01;51.90;99319.84;5109761;28;20081;-48
2022/04/26 04:38:19;;;;;;;23.38;4.93;;;;;;;19.33;49.50;99334.94;5110654;28;20036;-50
2022/04/26 04:40:45;;;;;;;15.98;4.10;;;;;;;19.61;48.09;99325.47;5110502;28;20019;-46
2022/04/26 04:43:11;;;;;;;20.92;5.20;;;;;;;20.02;48.43;99338.88;5109885;28;20019;-49
2022/04/26 04:45:38;;;;;;;21.30;5.20;;;;;;;20.42;47.69;99333.56;5109942;28;20061;-50
2022/04/26 04:48:05;;;;;;;20.02;5.10;;;;;;;20.86;46.72;99347.09;5109897;28;20034;-47
2022/04/26 04:50:32;;;;;;;17.90;4.82;;;;;;;21.32;44.57;99345.13;5110181;28;20031;-48
2022/04/26 04:52:58;;;;;;;14.45;4.25;;;;;;;21.29;43.45;99335.69;5110311;28;20107;-49
2022/04/26 04:55:23;;;;;;;12.68;4.07;;;;;;;21.57;42.52;99344.94;5109769;28;20019;-49
2022/04/26 04:57:49;;;;;;;15.55;3.67;;;;;;;21.98;41.90;99349.13;5109872;28;20046;-48
2022/04/26 05:00:15;;;;;;;14.32;3.65;;;;;;;22.34;41.92;99351.41;5109796;28;20031;-47
2022/04/26 05:02:40;;;;;;;10.55;3.10;;;;;;;22.68;40.80;99361.28;5110044;28;20035;-48
2022/04/26 05:05:06;;;;;;;11.23;4.50;;;;;;;23.02;39.25;99361.84;5109525;28;20039;-50
2022/04/26 05:07:31;;;;;;;6.47;3.47;;;;;;;23.12;38.36;99370.94;5109633;28;20367;-49
2022/04/26 05:09:57;;;;;;;9.85;3.20;;;;;;;23.32;36.89;99376.06;5110170;28;20049;-48
2022/04/26 05:12:22;;;;;;;8.98;2.95;;;;;;;23.47;36.66;99366.03;5110160;28;20080;-49
2022/04/26 05:14:48;;;;;;;14.75;8.23;;;;;;;23.46;36.52;99369.84;5109718;28;20027;-48
2022/04/26 05:17:13;;;;;;;38.67;25.38;;;;;;;23.55;36.18;99368.03;5107841;28;20028;-49
2022/04/26 05:19:38;;;;;;;19.70;9.02;;;;;;;23.62;36.15;99374.69;5097773;28;20031;-49
2022/04/26 05:22:08;;;;;;;13.07;4.10;;;;;;;24.09;36.15;99376.59;5100938;28;20098;-51
2022/04/26 05:27:26;;;;;;;15.20;4.22;;;;;;;25.12;34.02;99381.44;5113925;28;20046;-51
2022/04/26 05:29:53;;;;;;;11.95;3.40;;;;;;;25.14;33.69;99375.69;5114005;28;20027;-51
2022/04/26 05:32:23;;;;;;;12.88;3.90;;;;;;;25.77;33.21;99384.75;5113634;28;20020;-49
2022/04/26 05:34:55;;;;;;;17.83;3.78;;;;;;;26.25;31.93;99372.28;5113971;28;20020;-48
2022/04/26 05:37:21;;;;;;;11.85;3.20;;;;;;;26.72;31.13;99387.00;5112116;28;20129;-49
2022/04/26 05:39:46;;;;;;;13.93;3.33;;;;;;;27.24;30.24;99391.63;5110664;28;20100;-52
2022/04/26 05:42:11;;;;;;;13.52;3.33;;;;;;;27.72;29.37;99389.00;5109841;28;20035;-52
2022/04/26 05:44:38;;;;;;;10.35;3.15;;;;;;;28.09;29.35;99379.22;5110066;28;20058;-50
2022/04/26 05:47:08;;;;;;;11.00;3.10;;;;;;;28.44;29.26;99384.50;5111202;28;20027;-47
2022/04/26 05:49:34;;;;;;;14.27;3.20;;;;;;;28.75;28.51;99384.16;5112337;28;20027;-49
2022/04/26 05:52:00;;;;;;;11.63;3.10;;;;;;;29.31;27.62;99381.13;5093631;28;20483;-51
2022/04/26 05:54:25;;;;;;;11.95;3.00;;;;;;;29.76;26.78;99379.56;5111637;28;20020;-50
2022/04/26 05:56:54;;;;;;;18.70;3.63;;;;;;;29.93;26.16;99378.53;5112345;28;20092;-51
2022/04/26 05:59:20;;;;;;;13.75;3.38;;;;;;;30.02;26.63;99385.53;5113723;28;20159;-51
2022/04/26 06:01:46;;;;;;;9.05;3.13;;;;;;;30.38;26.27;99385.84;5113378;28;20032;-49
2022/04/26 06:04:12;;;;;;;13.10;3.28;;;;;;;30.70;24.64;99383.28;5113564;28;20043;-49
2022/04/26 06:06:38;;;;;;;8.25;3.30;;;;;;;30.49;25.14;99383.44;5114053;28;20108;-50
2022/04/26 06:09:04;;;;;;;11.25;3.50;;;;;;;30.33;25.97;99375.09;5112776;28;20046;-51
2022/04/26 06:11:29;;;;;;;12.75;3.50;;;;;;;30.84;23.98;99371.91;5112812;28;20027;-48
2022/04/26 06:13:55;;;;;;;9.77;3.40;;;;;;;31.28;24.56;99380.22;5113100;28;20110;-47
2022/04/26 06:16:20;;;;;;;12.95;2.95;;;;;;;31.60;23.41;99383.06;5113168;28;20030;-51
2022/04/26 06:18:46;;;;;;;11.38;2.95;;;;;;;31.84;22.76;99384.84;5113124;28;20031;-52
2022/04/26 06:21:11;;;;;;;8.77;3.20;;;;;;;31.84;23.09;99379.34;5113570;28;20031;-49
2022/04/26 06:23:37;;;;;;;10.02;2.70;;;;;;;31.98;22.53;99384.41;5112044;28;20023;-52
2022/04/26 06:26:02;;;;;;;10.73;2.85;;;;;;;32.05;22.32;99385.41;5113150;28;20019;-52
2022/04/26 06:28:28;;;;;;;12.75;3.10;;;;;;;32.36;21.99;99382.97;5112210;28;20477;-52
2022/04/26 06:30:56;;;;;;;8.82;3.15;;;;;;;32.64;21.97;99374.56;5112583;28;20466;-48
2022/04/26 06:33:22;;;;;;;15.10;2.97;;;;;;;32.50;21.85;99364.00;5112248;28;20024;-51
2022/04/26 06:35:48;;;;;;;14.77;3.00;;;;;;;32.99;22.02;99370.94;5112340;28;20490;-51
2022/04/26 06:38:14;;;;;;;15.50;3.20;;;;;;;33.14;21.26;99369.28;5112239;28;20034;-50
2022/04/26 06:40:40;;;;;;;13.15;2.90;;;;;;;33.29;20.84;99373.91;5112335;28;20111;-51
2022/04/26 06:43:05;;;;;;;10.65;3.00;;;;;;;33.64;20.71;99368.28;5112263;28;20103;-51
2022/04/26 06:45:31;;;;;;;12.25;3.10;;;;;;;34.08;20.11;99375.25;5111695;28;20046;-51
2022/04/26 06:47:58;;;;;;;15.63;3.10;;;;;;;34.42;19.80;99380.91;5111977;28;20027;-50
2022/04/26 06:50:24;;;;;;;12.40;2.70;;;;;;;34.44;20.02;99371.09;5112439;28;20019;-51
2022/04/26 06:52:49;;;;;;;14.60;2.58;;;;;;;34.45;20.32;99378.22;5112182;28;20163;-52
2022/04/26 06:55:15;;;;;;;5.97;2.30;;;;;;;34.50;20.03;99371.56;5111453;28;20023;-51
2022/04/26 06:57:40;;;;;;;9.63;2.35;;;;;;;34.73;19.70;99359.63;5111805;28;20020;-52
2022/04/26 07:00:08;;;;;;;7.43;2.58;;;;;;;34.53;19.47;99359.75;5112056;28;20023;-52
2022/04/26 07:02:34;;;;;;;7.53;2.67;;;;;;;34.15;20.79;99369.84;5111758;28;20098;-49
2022/04/26 07:04:59;;;;;;;8.70;2.88;;;;;;;33.79;20.52;99362.97;5108028;28;20126;-52
2022/04/26 07:07:25;;;;;;;11.07;2.25;;;;;;;33.32;20.71;99362.16;5093307;28;20019;-51
2022/04/26 07:09:50;;;;;;;8.20;2.40;;;;;;;33.63;20.12;99366.66;5111413;28;20031;-50
2022/04/26 07:12:16;;;;;;;14.07;2.75;;;;;;;33.77;19.86;99360.59;5111261;28;20023;-52
2022/04/26 07:14:42;;;;;;;8.73;2.72;;;;;;;34.14;20.12;99370.22;5111029;28;20030;-53
2022/04/26 07:17:08;;;;;;;8.02;2.83;;;;;;;34.07;19.94;99366.19;5111373;28;20024;-51
2022/04/26 07:19:37;;;;;;;7.97;2.50;;;;;;;34.28;19.43;99362.19;5111407;28;20027;-52
2022/04/26 07:22:03;;;;;;;6.07;2.50;;;;;;;34.39;19.00;99363.13;5108075;28;20034;-51
2022/04/26 07:24:33;;;;;;;11.02;2.90;;;;;;;34.37;19.07;99361.94;5111384;28;20415;-51
2022/04/26 07:26:58;;;;;;;8.48;2.55;;;;;;;34.11;19.44;99363.50;5111522;28;20420;-53
2022/04/26 07:29:24;;;;;;;11.02;2.60;;;;;;;33.97;19.44;99371.56;5111806;28;20050;-49
2022/04/26 07:31:49;;;;;;;8.20;2.75;;;;;;;33.72;20.58;99366.44;5111100;28;20084;-51
2022/04/26 07:34:21;;;;;;;10.07;2.47;;;;;;;33.92;19.48;99372.66;5111593;28;20036;-51
2022/04/26 07:36:51;;;;;;;9.02;2.33;;;;;;;34.06;19.78;99367.38;5111805;28;20441;-53
2022/04/26 07:39:20;;;;;;;12.93;2.67;;;;;;;33.30;21.29;99370.78;5111771;28;20081;-51
2022/04/26 07:41:47;;;;;;;12.15;2.90;;;;;;;32.20;22.07;99370.03;5111697;28;20023;-51
2022/04/26 07:44:12;;;;;;;11.75;2.60;;;;;;;32.36;21.43;99366.44;5111263;28;20047;-52
2022/04/26 07:46:39;;;;;;;8.98;2.67;;;;;;;32.63;21.60;99368.25;5111426;28;20020;-52
2022/04/26 07:49:05;;;;;;;13.45;3.00;;;;;;;32.28;22.29;99368.25;5111389;28;20111;-52
2022/04/26 07:51:32;;;;;;;13.15;2.70;;;;;;;32.24;22.82;99362.66;5093537;28;20028;-52
2022/04/26 07:53:57;;;;;;;14.40;2.85;;;;;;;31.88;22.84;99360.97;5110683;28;20035;-51
2022/04/26 07:56:23;;;;;;;18.70;3.55;;;;;;;31.47;23.69;99374.09;5111213;28;20024;-51
2022/04/26 07:58:48;;;;;;;9.40;2.80;;;;;;;31.41;23.57;99367.22;5111184;28;20099;-51
2022/04/26 08:01:14;;;;;;;10.82;3.00;;;;;;;31.09;24.36;99378.13;5111030;28;20390;-51
2022/04/26 08:03:39;;;;;;;13.50;3.15;;;;;;;30.05;25.83;99361.28;5092468;28;20027;-51
2022/04/26 08:06:05;;;;;;;12.98;3.00;;;;;;;30.10;25.89;99359.13;5111939;28;20075;-50
2022/04/26 08:08:30;;;;;;;10.93;2.88;;;;;;;30.56;25.63;99351.53;5111599;28;20027;-53
2022/04/26 08:10:57;;;;;;;9.90;3.28;;;;;;;29.93;27.30;99359.31;5111561;28;20031;-52
2022/04/26 08:13:22;;;;;;;11.52;3.25;;;;;;;28.61;27.56;99357.03;5111652;28;20077;-50
2022/04/26 08:15:48;;;;;;;11.40;3.63;;;;;;;27.57;29.36;99374.75;5111497;28;20020;-50
2022/04/26 08:18:14;;;;;;;13.18;3.85;;;;;;;27.42;30.20;99365.13;5111519;28;20137;-50
2022/04/26 08:20:39;;;;;;;13.45;4.00;;;;;;;27.59;30.62;99356.09;5110982;28;20023;-50
2022/04/26 08:23:06;;;;;;;12.45;4.05;;;;;;;27.67;30.52;99368.13;5110107;28;20030;-51
2022/04/26 08:28:19;;;;;;;14.45;4.40;;;;;;;26.27;32.83;99359.97;5110847;28;20076;-50
2022/04/26 08:30:45;;;;;;;11.43;3.95;;;;;;;26.73;31.71;99349.59;5110428;28;20019;-52
2022/04/26 08:33:10;;;;;;;16.77;4.10;;;;;;;26.63;32.12;99358.09;5111157;28;20016;-50
2022/04/26 08:35:36;;;;;;;10.73;4.25;;;;;;;27.13;32.18;99362.25;5110182;28;20027;-51
2022/04/26 08:38:01;;;;;;;13.10;4.20;;;;;;;27.20;32.15;99355.19;5110746;28;20016;-49
2022/04/26 08:40:27;;;;;;;13.10;3.53;;;;;;;27.78;30.55;99341.22;5109796;28;20050;-48
2022/04/26 08:42:53;;;;;;;13.00;3.63;;;;;;;27.03;31.59;99347.81;5110240;28;20090;-50
2022/04/26 08:45:20;;;;;;;8.95;3.05;;;;;;;27.06;30.92;99343.66;5110184;28;20018;-52
2022/04/26 08:53:19;;;;;;;8.75;2.40;;;;;;;27.25;30.65;99346.84;5110409;28;20026;-52
2022/04/26 08:55:49;;;;;;;10.40;2.17;;;;;;;26.76;30.51;99350.88;5110650;28;20030;-53
2022/04/26 08:58:15;;;;;;;9.68;2.05;;;;;;;26.42;29.36;99339.59;5110918;28;20030;-51
2022/04/26 09:01:03;;;;;;;5.43;2.00;;;;;;;26.69;29.59;99344.00;5111032;28;20031;-50
2022/04/26 09:03:55;;;;;;;7.60;1.95;;;;;;;27.17;29.03;99325.81;5114004;28;20024;-52
2022/04/26 09:06:43;;;;;;;5.30;2.00;;;;;;;27.50;28.23;99328.00;5114689;28;21346;-50
2022/04/26 09:09:21;;;;;;;4.97;1.90;;;;;;;26.86;28.55;99326.78;5114672;28;20502;-52
2022/04/26 09:11:47;;;;;;;6.97;1.92;;;;;;;26.86;29.05;99326.00;5113830;28;20076;-50
2022/04/26 09:14:47;;;;;;;5.50;1.42;;;;;;;27.08;27.57;99316.81;5113905;28;20104;-52
2022/04/26 09:17:16;;;;;;;6.07;1.73;;;;;;;26.59;28.25;99319.72;5113708;28;20034;-52
2022/04/26 09:19:55;;;;;;;6.03;1.90;;;;;;;27.43;28.04;99311.28;5114208;28;20077;-51
2022/04/26 09:22:26;;;;;;;9.43;1.63;;;;;;;27.68;27.61;99312.31;5100038;28;20036;-51
2022/04/26 09:24:58;;;;;;;9.07;2.10;;;;;;;27.56;27.07;99329.41;5113502;28;20043;-52
2022/04/26 09:27:23;;;;;;;7.50;2.03;;;;;;;26.84;28.07;99301.75;5113637;28;20494;-50
2022/04/26 09:29:49;;;;;;;11.02;2.22;;;;;;;26.34;27.35;99299.47;5113676;28;20156;-53
2022/04/26 09:32:15;;;;;;;5.97;1.67;;;;;;;27.08;26.79;99301.22;5113606;28;20126;-51
2022/04/26 09:34:41;;;;;;;9.30;1.73;;;;;;;27.34;26.24;99305.88;5094795;28;20036;-51
2022/04/26 09:37:06;;;;;;;6.88;1.90;;;;;;;27.15;27.31;99294.47;5113765;28;20080;-52
2022/04/26 09:39:32;;;;;;;10.18;2.47;;;;;;;27.50;26.58;99296.00;5113804;28;20035;-52
2022/04/26 09:41:58;;;;;;;5.53;1.50;;;;;;;27.47;26.34;99290.38;5112694;28;20375;-52
2022/04/26 09:44:31;;;;;;;6.93;1.60;;;;;;;27.89;26.26;99298.75;5112288;28;20084;-50
2022/04/26 09:46:57;;;;;;;5.22;1.92;;;;;;;28.30;25.95;99294.47;5112164;28;20085;-51
2022/04/26 09:49:24;;;;;;;5.55;1.70;;;;;;;28.78;25.01;99308.78;5112390;28;20023;-52
2022/04/26 09:51:59;;;;;;;9.25;1.95;;;;;;;27.95;25.66;99304.81;5112557;28;20035;-49
2022/04/26 09:54:26;;;;;;;6.80;1.80;;;;;;;26.90;27.94;99308.66;5112546;28;20450;-50
2022/04/26 09:56:52;;;;;;;7.93;1.95;;;;;;;26.92;28.25;99300.94;5112922;28;20030;-47
2022/04/26 09:59:27;;;;;;;5.38;1.80;;;;;;;26.19;28.93;99286.31;5113461;28;20552;-50
2022/04/26 10:01:54;;;;;;;4.68;1.67;;;;;;;26.16;28.98;99289.66;5113613;28;20020;-48
2022/04/26 10:04:22;;;;;;;4.68;1.70;;;;;;;26.09;29.29;99284.69;5112979;28;20039;-50
2022/04/26 10:06:51;;;;;;;3.78;1.60;;;;;;;26.87;28.97;99286.66;5112049;28;20034;-51
2022/04/26 10:09:18;;;;;;;7.20;1.80;;;;;;;26.62;28.62;99293.75;5111916;28;20051;-51
2022/04/26 10:11:43;;;;;;;5.75;2.00;;;;;;;26.93;27.79;99282.63;5111470;28;20269;-51
2022/04/26 10:14:10;;;;;;;5.95;1.48;;;;;;;26.74;27.46;99291.16;5111279;28;20510;-50
2022/04/26 10:16:39;;;;;;;6.68;1.42;;;;;;;26.58;27.66;99296.28;5111833;28;20459;-53
2022/04/26 10:19:09;;;;;;;4.13;1.38;;;;;;;26.61;27.46;99273.03;5111701;28;20043;-53
2022/04/26 10:21:40;;;;;;;4.97;1.77;;;;;;;26.71;27.46;99275.41;5111683;28;20028;-51
2022/04/26 10:24:06;;;;;;;7.72;1.50;;;;;;;26.37;28.32;99279.75;5093343;28;20424;-52
2022/04/26 10:26:33;;;;;;;8.32;1.70;;;;;;;26.97;27.64;99264.47;5112013;28;20035;-52
2022/04/26 10:29:07;;;;;;;5.60;1.73;;;;;;;26.84;27.62;99269.00;5111388;28;20019;-50
2022/04/26 10:31:46;;;;;;;4.53;1.40;;;;;;;26.36;27.42;99261.78;5111540;28;20066;-52
2022/04/26 10:34:18;;;;;;;4.38;1.58;;;;;;;26.38;27.74;99261.47;5110470;28;20050;-49
2022/04/26 10:37:06;;;;;;;6.70;1.80;;;;;;;26.82;27.73;99268.50;5110791;28;20031;-49
2022/04/26 10:39:39;;;;;;;8.30;1.77;;;;;;;27.53;27.05;99266.41;5107547;28;20023;-51
2022/04/26 10:42:10;;;;;;;5.30;1.77;;;;;;;27.81;26.10;99277.69;5110545;28;20030;-51
2022/04/26 10:44:41;;;;;;;4.40;1.80;;;;;;;27.49;27.08;99279.94;5110291;28;20122;-52
2022/04/26 10:47:07;;;;;;;6.45;1.83;;;;;;;27.74;25.87;99278.22;5111189;28;20031;-51
2022/04/26 10:49:32;;;;;;;7.93;1.50;;;;;;;27.11;26.40;99288.84;5110732;28;20126;-52
2022/04/26 10:52:24;;;;;;;5.45;1.40;;;;;;;27.27;26.84;99300.09;5110793;28;20383;-52
2022/04/26 10:54:55;;;;;;;5.13;1.52;;;;;;;26.81;27.10;99277.84;5110477;28;20016;-52
2022/04/26 10:57:22;;;;;;;4.57;1.70;;;;;;;26.64;27.34;99289.56;5110496;28;20050;-52
2022/04/26 10:59:54;;;;;;;7.32;1.50;;;;;;;26.58;27.83;99284.56;5110391;28;20047;-50
2022/04/26 11:02:24;;;;;;;6.80;2.03;;;;;;;26.63;29.18;99279.75;5110414;28;20031;-50
2022/04/26 11:04:57;;;;;;;7.03;1.85;;;;;;;26.86;28.39;99271.41;5096006;28;161247;-51
2022/04/26 11:07:25;;;;;;;4.75;1.60;;;;;;;26.43;28.80;99277.66;5103974;28;20124;-51
2022/04/26 11:09:53;;;;;;;7.20;1.80;;;;;;;25.74;29.77;99265.47;5111892;28;20172;-53
2022/04/26 11:12:24;;;;;;;4.90;1.90;;;;;;;25.99;29.88;99265.88;5111314;28;20262;-53
2022/04/26 11:14:55;;;;;;;8.05;2.00;;;;;;;26.78;29.20;99266.75;5110782;28;20024;-53
2022/04/26 11:17:24;;;;;;;4.47;1.88;;;;;;;26.59;28.99;99237.06;5110943;28;20054;-49
2022/04/26 11:19:58;;;;;;;5.97;1.70;;;;;;;26.47;28.96;99265.00;5110591;28;20455;-51
2022/04/26 11:22:25;;;;;;;7.22;1.70;;;;;;;25.88;29.36;99265.38;5110890;28;20028;-50
2022/04/26 11:30:52;;;;;;;4.03;1.55;;;;;;;25.41;29.78;99295.78;5049378;28;20063;-51
2022/04/26 11:33:19;;;;;;;12.02;2.03;;;;;;;25.98;29.95;99261.56;5100272;28;20027;-52
2022/04/26 11:36:00;;;;;;;7.72;1.83;;;;;;;25.42;29.94;99253.84;5111580;28;20023;-52
2022/04/26 11:38:27;;;;;;;7.07;1.83;;;;;;;25.60;32.07;99243.81;5111950;28;20023;-51
2022/04/26 11:41:00;;;;;;;7.93;2.05;;;;;;;25.32;33.05;99238.59;5112116;28;20406;-53
2022/04/26 11:43:28;;;;;;;6.43;1.77;;;;;;;25.37;32.12;99237.63;5111103;28;20019;-49
2022/04/26 11:45:57;;;;;;;6.40;2.10;;;;;;;25.47;32.10;99239.25;5111863;28;20030;-50
2022/04/26 11:48:29;;;;;;;10.55;1.92;;;;;;;25.90;30.80;99246.78;5111452;28;20081;-51
2022/04/26 11:50:57;;;;;;;6.63;1.67;;;;;;;25.56;31.07;99251.00;5111614;28;20027;-52
2022/04/26 11:53:25;;;;;;;5.85;1.95;;;;;;;25.55;32.01;99247.47;5111591;28;20407;-50
2022/04/26 11:56:00;;;;;;;4.25;1.85;;;;;;;25.48;31.96;99227.28;5111922;28;20016;-52
2022/04/26 11:58:28;;;;;;;5.82;2.00;;;;;;;25.78;31.92;99241.13;5111679;28;20027;-51
2022/04/26 12:01:02;;;;;;;8.73;2.27;;;;;;;25.41;32.20;99235.09;5111592;28;20399;-52
2022/04/26 12:03:54;;;;;;;5.45;2.10;;;;;;;25.67;30.80;99235.97;5111229;28;20277;-49
2022/04/26 12:06:32;;;;;;;6.57;2.00;;;;;;;26.10;30.49;99243.47;5100121;28;20138;-49
2022/04/26 12:09:02;;;;;;;8.15;2.10;;;;;;;26.50;30.55;99235.16;5111041;28;20382;-51
2022/04/26 12:11:30;;;;;;;6.95;1.90;;;;;;;26.20;31.99;99231.44;5111365;28;20383;-52
2022/04/26 12:14:08;;;;;;;9.18;2.10;;;;;;;25.93;32.40;99216.16;5111037;28;20118;-50
2022/04/26 12:16:41;;;;;;;7.10;1.83;;;;;;;25.41;32.80;99224.19;5111091;28;20088;-50
2022/04/26 12:19:06;;;;;;;6.63;1.77;;;;;;;25.44;30.82;99229.81;5093041;28;20487;-52
2022/04/26 12:21:52;;;;;;;11.63;2.00;;;;;;;25.37;32.36;99204.94;5111218;28;20099;-49
2022/04/26 12:24:21;;;;;;;11.80;2.35;;;;;;;25.91;32.51;99213.78;5110612;28;20032;-51
2022/04/26 12:26:57;;;;;;;7.57;2.30;;;;;;;26.32;31.42;99206.28;5092704;28;20027;-49
2022/04/26 12:29:28;;;;;;;6.63;1.98;;;;;;;26.42;31.24;99197.75;5111006;28;20099;-52
2022/04/26 12:31:54;;;;;;;7.80;2.03;;;;;;;26.37;30.50;99222.47;5111157;28;20038;-49
2022/04/26 12:34:29;;;;;;;9.68;2.53;;;;;;;26.41;30.26;99207.06;5110663;28;20039;-51
2022/04/26 12:37:09;;;;;;;8.15;1.90;;;;;;;25.94;30.63;99196.00;5110576;28;20046;-53
2022/04/26 12:39:41;;;;;;;6.90;1.80;;;;;;;25.84;31.46;99197.06;5110765;28;20023;-50
2022/04/26 12:42:12;;;;;;;6.35;1.80;;;;;;;26.03;30.86;99183.16;5110654;28;20095;-51
2022/04/26 12:44:58;;;;;;;7.68;2.25;;;;;;;26.09;31.50;99175.63;5110572;28;20077;-50
2022/04/26 12:50:29;;;;;;;5.82;2.00;;;;;;;26.31;31.68;99182.84;5111001;28;20076;-48
2022/04/26 12:52:58;;;;;;;4.75;2.00;;;;;;;26.40;28.85;99174.66;5110803;28;20064;-51
2022/04/26 12:55:31;;;;;;;5.45;1.90;;;;;;;26.66;29.03;99161.00;5110416;28;20047;-49
2022/04/26 12:58:08;;;;;;;14.32;2.30;;;;;;;26.38;29.57;99169.53;5110341;28;20115;-50
2022/04/26 13:00:39;;;;;;;15.85;2.88;;;;;;;26.47;30.39;99170.31;5110995;28;20442;-52
2022/04/26 13:03:07;;;;;;;14.10;2.42;;;;;;;26.08;31.50;99166.66;5110433;28;20032;-51
2022/04/26 13:05:39;;;;;;;7.13;2.20;;;;;;;26.32;30.95;99170.81;5109966;28;20051;-51
2022/04/26 13:08:05;;;;;;;5.13;2.00;;;;;;;26.31;30.89;99158.28;5110217;28;20055;-50
2022/04/26 13:10:30;;;;;;;5.82;2.00;;;;;;;26.47;29.66;99169.53;5110212;28;20051;-51
2022/04/26 13:12:56;;;;;;;5.32;1.75;;;;;;;26.17;29.21;99157.69;5110561;28;20055;-52
2022/04/26 13:15:23;;;;;;;3.42;1.58;;;;;;;25.46;30.16;99161.41;5110388;28;20035;-51
2022/04/26 13:17:49;;;;;;;5.63;1.95;;;;;;;26.05;30.25;99150.94;5110706;28;20027;-52
2022/04/26 13:20:15;;;;;;;6.63;2.10;;;;;;;26.29;30.21;99174.16;5110293;28;20449;-53
2022/04/26 13:22:40;;;;;;;9.55;2.15;;;;;;;26.21;31.36;99155.91;5111130;28;20032;-52
2022/04/26 13:25:30;;;;;;;6.43;1.77;;;;;;;26.82;29.95;99153.88;5109434;28;20043;-49
2022/04/26 13:27:56;;;;;;;6.38;1.80;;;;;;;26.40;28.55;99147.38;5109796;28;20031;-52
2022/04/26 13:30:23;;;;;;;7.82;1.75;;;;;;;26.36;29.35;99158.13;5109553;28;20104;-49
2022/04/26 13:32:49;;;;;;;8.98;1.85;;;;;;;26.46;29.97;99163.25;5110518;28;20030;-49
2022/04/26 13:35:15;;;;;;;6.72;2.00;;;;;;;26.71;29.68;99152.63;5109728;28;20020;-50
2022/04/26 13:37:40;;;;;;;4.72;1.95;;;;;;;27.07;28.41;99151.38;5110218;28;20024;-50
2022/04/26 13:40:07;;;;;;;3.90;1.67;;;;;;;26.56;28.50;99170.31;5109879;28;20024;-48
2022/04/26 13:42:35;;;;;;;9.85;1.85;;;;;;;25.89;28.67;99171.56;5109911;28;20024;-51
2022/04/26 13:45:00;;;;;;;5.82;1.90;;;;;;;25.66;28.93;99189.97;5110458;28;20080;-51
2022/04/26 13:47:26;;;;;;;5.97;2.22;;;;;;;26.08;29.14;99163.94;5112130;28;20448;-52
2022/04/26 13:49:52;;;;;;;7.85;2.03;;;;;;;26.13;28.56;99146.59;5113982;28;20083;-51
2022/04/26 13:52:20;;;;;;;5.10;2.10;;;;;;;26.32;29.18;99147.06;5113758;28;20517;-52
2022/04/26 13:54:46;;;;;;;10.07;2.20;;;;;;;25.74;29.77;99168.22;5113610;28;20084;-52
2022/04/26 13:57:12;;;;;;;7.13;2.30;;;;;;;25.31;30.52;99149.03;5113754;28;20480;-52
2022/04/26 13:59:37;;;;;;;9.77;2.50;;;;;;;25.63;30.62;99147.84;5114338;28;20119;-50
2022/04/26 14:02:04;;;;;;;7.45;1.88;;;;;;;25.87;30.50;99162.91;5113535;28;20050;-52
2022/04/26 14:04:30;;;;;;;8.40;2.08;;;;;;;26.36;29.92;99163.59;5113235;28;20051;-51
2022/04/26 14:06:55;;;;;;;7.15;2.08;;;;;;;26.21;29.88;99153.97;5113498;28;20038;-52
2022/04/26 14:09:22;;;;;;;3.92;1.77;;;;;;;26.13;30.34;99161.03;5113171;28;20059;-50
2022/04/26 14:11:48;;;;;;;4.85;1.98;;;;;;;26.37;29.77;99176.13;5113128;28;20024;-52
2022/04/26 14:22:32;;;;;;;8.15;1.90;;;;;;;25.02;31.45;99171.31;5113139;28;20038;-52
2022/04/26 14:25:08;;;;;;;11.13;2.22;;;;;;;25.11;32.33;99155.81;5112811;28;20028;-51
2022/04/26 14:27:34;;;;;;;5.20;2.00;;;;;;;25.45;32.67;99155.16;5112671;28;20031;-49
2022/04/26 14:29:59;;;;;;;6.78;2.10;;;;;;;25.32;33.03;99145.19;5111245;28;20028;-51
2022/04/26 14:32:25;;;;;;;6.05;2.38;;;;;;;25.59;32.39;99162.38;5095637;28;20026;-52
2022/04/26 14:34:51;;;;;;;5.25;2.42;;;;;;;25.04;33.36;99155.50;5092406;28;20470;-49
2022/04/26 14:37:17;;;;;;;6.32;2.10;;;;;;;25.34;32.86;99165.56;5096311;28;20050;-50
2022/04/26 14:39:43;;;;;;;8.10;2.17;;;;;;;25.24;33.38;99171.25;5113571;28;20490;-50
2022/04/26 14:42:09;;;;;;;7.65;2.47;;;;;;;25.16;33.43;99180.97;5113318;28;20645;-51
2022/04/26 14:44:35;;;;;;;7.97;2.40;;;;;;;24.87;34.05;99186.13;5112710;28;20050;-50
2022/04/26 14:47:06;;;;;;;10.02;2.92;;;;;;;24.85;34.58;99186.44;5113131;28;20532;-51
2022/04/26 14:49:32;;;;;;;8.35;2.67;;;;;;;24.83;34.41;99196.00;5113173;28;20023;-51
2022/04/26 14:51:57;;;;;;;6.32;2.10;;;;;;;24.66;34.46;99199.47;5113050;28;20543;-48
2022/04/26 14:54:23;;;;;;;8.95;2.67;;;;;;;24.62;34.53;99204.72;5112476;28;20016;-50
2022/04/26 14:56:48;;;;;;;10.55;2.55;;;;;;;24.56;34.56;99206.75;5113340;28;20384;-48
2022/04/26 14:59:18;;;;;;;8.55;2.47;;;;;;;24.74;34.93;99204.13;5102682;28;20486;-52
2022/04/26 15:01:48;;;;;;;9.07;2.58;;;;;;;24.93;35.29;99210.16;5109346;28;20468;-49
2022/04/26 15:04:15;;;;;;;5.35;2.50;;;;;;;24.32;36.75;99214.38;5102047;28;20051;-49
2022/04/26 15:06:41;;;;;;;9.82;2.72;;;;;;;23.96;37.86;99226.03;5112831;28;20027;-51
2022/04/26 15:16:37;;;;;;;8.07;2.90;;;;;;;23.11;40.86;99236.34;5113230;28;20035;-50
2022/04/26 15:17:38;;;;;;;13.70;2.90;;;;;;;22.93;40.57;99257.81;5057208;28;20054;-51
2022/04/26 15:20:04;;;;;;;5.20;2.67;;;;;;;23.02;40.41;99260.66;5096870;28;20543;-51
2022/04/26 15:22:30;;;;;;;10.25;2.92;;;;;;;22.86;42.13;99283.69;5112702;28;20023;-53
2022/04/26 15:24:55;;;;;;;7.28;2.70;;;;;;;22.44;42.61;99289.72;5112625;28;20107;-48
2022/04/26 15:27:21;;;;;;;9.63;3.95;;;;;;;22.35;42.93;99301.53;5112291;28;20024;-48
2022/04/26 15:29:47;;;;;;;5.65;2.75;;;;;;;21.72;45.91;99319.59;5112856;28;20023;-46
2022/04/26 15:32:13;;;;;;;8.43;2.70;;;;;;;20.93;49.21;99319.75;5112943;28;20055;-37
2022/04/26 15:34:39;;;;;;;5.93;2.83;;;;;;;20.90;51.00;99325.72;5112530;28;20027;-37
2022/04/26 15:37:05;;;;;;;7.50;3.10;;;;;;;20.79;53.79;99330.41;5112492;28;20103;-37
2022/04/26 15:39:31;;;;;;;8.48;3.20;;;;;;;20.51;54.08;99330.00;5112235;28;20016;-37
2022/04/26 15:41:57;;;;;;;7.82;4.00;;;;;;;20.53;55.84;99331.63;5112265;28;20150;-37
2022/04/26 15:44:23;;;;;;;14.65;4.45;;;;;;;20.68;55.21;99339.69;5112278;28;20027;-37
2022/04/26 15:46:52;;;;;;;10.18;3.38;;;;;;;20.65;56.51;99345.63;5112435;28;20023;-37